Main page
METAR-TAF:

METAR-TAF

Airports :

Logroño–Agoncillo Airport

Logroño, Spain

latitude: 42-27N, longitude: 002-20W, elevation: 353 m

Current weather observation

The report was made 29 minutes ago, at 06:00 UTC
Wind 4 kt from the West
Temperature 10°C
Humidity 100%
Pressure 1019 hPa
Visibility: 4000 m
Few clouds at a height of 1000 ft
mist

METAR: LELO 170600Z 28004KT 4000 BR FEW010 10/10 Q1019

Time: 08:29 (06:29 UTC)

Forecast

The report was made 1 hour and 29 minutes ago, at 05:00 UTC
Forecast valid from 17 at 06 UTC to 17 at 15 UTC
Wind 4 kt from the West
Visibility 10 km or more
no clouds below 1500 m and no cumulonimbus
Probability 30% :
Temporary
from 17 at 06 UTC to 17 at 09 UTC
Visibility: 0600 m
Broken clouds at a height of 600 ft
patches of fog

TAF: LELO 170500Z 1706/1715 28004KT CAVOK PROB30 TEMPO 1706/1709 0600 BCFG BKN006

Weather observations and forecasts of more than 4000 airports (METAR and TAF reports).

The available stations are represented by yellow and red dots on the map.

Hover mouse over dot to see the name of the station.

Then click to see weather observations and forecasts.

To change the map : click on the green buttons with a black cross to zoom in, on the green button with a dash to zoom out, or on the green arrows for adjacent maps.


METAR-TAF: